createdAt,value
2019-05-30T00:01:54.269Z,101849.91
2019-05-30T00:04:26.876Z,101844.39
2019-05-30T00:07:00.552Z,101844.42
2019-05-30T00:09:33.415Z,101843.56
2019-05-30T00:12:06.220Z,101845.73
2019-05-30T00:14:38.790Z,101851.92
2019-05-30T00:17:11.493Z,101855.49
2019-05-30T00:19:44.066Z,101854.23
2019-05-30T00:22:16.755Z,101853.45
2019-05-30T00:24:49.244Z,101851.48
2019-05-30T00:27:21.901Z,101859.54
2019-05-30T00:29:55.150Z,101858.83
2019-05-30T00:32:28.081Z,101866.34
2019-05-30T00:35:01.934Z,101866.78
2019-05-30T00:37:34.830Z,101863.78
2019-05-30T00:40:09.866Z,101870.78
2019-05-30T00:42:42.497Z,101875.77
2019-05-30T00:45:21.003Z,101874.58
2019-05-30T00:47:49.780Z,101879.01
2019-05-30T00:50:22.495Z,101879.05
2019-05-30T00:52:56.340Z,101873.83
2019-05-30T00:55:29.152Z,101875.17
2019-05-30T00:58:02.781Z,101875.17
2019-05-30T01:00:43.242Z,101868.29
2019-05-30T01:03:09.871Z,101866.99
2019-05-30T01:05:42.440Z,101867.03
2019-05-30T01:08:15.561Z,101866.23
2019-05-30T01:10:47.990Z,101859.71
2019-05-30T01:13:20.597Z,101860.62
2019-05-30T01:15:53.342Z,101867.14
2019-05-30T01:18:25.920Z,101856.34
2019-05-30T01:20:59.147Z,101858.16
2019-05-30T01:23:31.965Z,101850.37
2019-05-30T01:26:05.475Z,101849.06
2019-05-30T01:28:38.390Z,101854.91
2019-05-30T01:31:11.707Z,101853.81
2019-05-30T01:33:44.370Z,101856.16
2019-05-30T01:36:17.071Z,101851.92
2019-05-30T01:38:49.545Z,101851.19
2019-05-30T01:41:22.200Z,101852.16
2019-05-30T01:43:54.855Z,101858.34
2019-05-30T01:46:27.366Z,101857.97
2019-05-30T01:49:00.270Z,101863.25
2019-05-30T01:51:32.890Z,101861.98
2019-05-30T01:54:06.576Z,101858.54
2019-05-30T01:56:39.475Z,101862.95
2019-05-30T01:59:12.075Z,101855.19
2019-05-30T02:01:44.735Z,101864.31
2019-05-30T02:04:17.255Z,101859.94
2019-05-30T02:06:49.838Z,101857.30
2019-05-30T02:09:22.486Z,101856.37
2019-05-30T02:11:54.990Z,101850.26
2019-05-30T02:14:27.875Z,101856.73
2019-05-30T02:17:01.523Z,101853.27
2019-05-30T02:19:34.247Z,101857.58
2019-05-30T02:22:07.969Z,101856.67
2019-05-30T02:24:40.605Z,101861.82
2019-05-30T02:27:13.430Z,101864.89
2019-05-30T02:29:45.971Z,101869.20
2019-05-30T02:32:18.817Z,101863.98
2019-05-30T02:34:51.624Z,101865.30
2019-05-30T02:37:24.213Z,101871.41
2019-05-30T02:40:00.178Z,101865.73
2019-05-30T02:42:31.306Z,101870.54
2019-05-30T02:45:05.666Z,101874.95
2019-05-30T02:47:39.383Z,101879.72
2019-05-30T02:50:13.904Z,101875.34
2019-05-30T02:52:47.197Z,101880.06
2019-05-30T02:55:20.125Z,101883.41
2019-05-30T02:57:52.616Z,101880.59
2019-05-30T03:00:35.751Z,101888.95
2019-05-30T03:03:12.353Z,101891.59
2019-05-30T03:05:44.328Z,101891.16
2019-05-30T03:08:16.950Z,101895.58
2019-05-30T03:10:49.700Z,101889.45
2019-05-30T03:13:23.569Z,101899.84
2019-05-30T03:15:56.266Z,101899.23
2019-05-30T03:18:29.205Z,101896.58
2019-05-30T03:21:03.254Z,101906.81
2019-05-30T03:23:36.380Z,101903.00
2019-05-30T03:26:10.815Z,101892.88
2019-05-30T03:28:43.212Z,101892.41
2019-05-30T03:31:28.093Z,101899.39
2019-05-30T03:33:53.567Z,101895.94
2019-05-30T03:36:30.751Z,101895.09
2019-05-30T03:39:00.414Z,101891.42
2019-05-30T03:41:33.276Z,101897.64
2019-05-30T03:44:08.340Z,101889.23
2019-05-30T03:46:44.942Z,101892.02
2019-05-30T03:49:22.053Z,101891.45
2019-05-30T03:51:57.603Z,101896.28
2019-05-30T03:54:31.257Z,101893.50
2019-05-30T03:57:20.230Z,101893.78
2019-05-30T04:00:11.225Z,101884.41
2019-05-30T04:03:15.594Z,101892.57
2019-05-30T04:06:01.146Z,101894.00
2019-05-30T04:08:36.552Z,101900.72
2019-05-30T04:11:14.757Z,101889.81
2019-05-30T04:14:06.689Z,101897.00
2019-05-30T04:16:38.882Z,101895.72
2019-05-30T04:19:12.576Z,101898.45
2019-05-30T04:21:45.995Z,101895.56
2019-05-30T04:24:19.760Z,101892.55
2019-05-30T04:26:53.819Z,101888.81
2019-05-30T04:29:26.205Z,101886.64
2019-05-30T04:31:58.722Z,101893.37
2019-05-30T04:34:31.331Z,101884.52
2019-05-30T04:37:03.968Z,101889.75
2019-05-30T04:39:36.501Z,101893.78
2019-05-30T04:42:09.377Z,101889.22
2019-05-30T04:44:42.491Z,101897.44
2019-05-30T04:47:16.104Z,101902.55
2019-05-30T04:49:48.791Z,101906.95
2019-05-30T04:52:24.715Z,101912.59
2019-05-30T04:54:55.523Z,101916.34
2019-05-30T04:57:27.870Z,101911.28
2019-05-30T05:00:00.544Z,101910.81
2019-05-30T05:02:33.102Z,101914.42
2019-05-30T05:05:08.352Z,101915.59
2019-05-30T05:07:40.995Z,101914.36
2019-05-30T05:10:15.908Z,101911.25
2019-05-30T05:12:49.591Z,101918.54
2019-05-30T05:15:22.757Z,101915.72
2019-05-30T05:17:55.576Z,101919.34
2019-05-30T05:20:28.046Z,101912.61
2019-05-30T05:23:00.680Z,101918.17
2019-05-30T05:25:33.385Z,101917.92
2019-05-30T05:28:05.800Z,101920.25
2019-05-30T05:30:38.477Z,101928.20
2019-05-30T05:33:11.476Z,101937.70
2019-05-30T05:35:43.980Z,101933.36
2019-05-30T05:38:18.038Z,101930.08
2019-05-30T05:40:53.681Z,101935.96
2019-05-30T05:43:26.748Z,101941.03
2019-05-30T05:45:59.160Z,101941.52
2019-05-30T05:48:31.691Z,101948.11
2019-05-30T05:51:04.502Z,101945.95
2019-05-30T05:53:37.351Z,101944.66
2019-05-30T05:56:10.155Z,101948.11
2019-05-30T05:58:42.762Z,101951.40
2019-05-30T06:01:17.100Z,101940.96
2019-05-30T06:03:49.962Z,101941.19
2019-05-30T06:06:23.424Z,101943.40
2019-05-30T06:08:56.389Z,101949.10
2019-05-30T06:11:29.060Z,101947.78
2019-05-30T06:14:01.689Z,101945.84
2019-05-30T06:16:34.237Z,101943.52
2019-05-30T06:19:06.903Z,101953.47
2019-05-30T06:21:52.954Z,101948.22
2019-05-30T06:24:13.875Z,101946.86
2019-05-30T06:26:46.610Z,101952.12
2019-05-30T06:29:20.135Z,101947.64
2019-05-30T06:31:52.741Z,101948.31
2019-05-30T06:34:35.978Z,101947.78
2019-05-30T06:36:59.545Z,101950.73
2019-05-30T06:39:32.315Z,101954.12
2019-05-30T06:42:05.201Z,101959.94
2019-05-30T06:44:37.745Z,101959.98
2019-05-30T06:47:10.347Z,101949.66
2019-05-30T06:49:43.045Z,101955.37
2019-05-30T06:52:15.676Z,101961.03
2019-05-30T06:54:48.127Z,101963.97
2019-05-30T06:57:21.626Z,101964.95
2019-05-30T06:59:55.101Z,101967.04
2019-05-30T07:02:28.425Z,101963.23
2019-05-30T07:05:01.873Z,101963.08
2019-05-30T07:07:36.414Z,101963.09
2019-05-30T07:10:10.149Z,101961.13
2019-05-30T07:12:42.770Z,101959.61
2019-05-30T07:15:16.870Z,101957.23
2019-05-30T07:17:49.542Z,101957.16
2019-05-30T07:20:23.510Z,101962.11
2019-05-30T07:22:56.146Z,101958.49
2019-05-30T07:25:29.931Z,101963.94
2019-05-30T07:28:03.089Z,101953.66
2019-05-30T07:30:35.606Z,101956.16
2019-05-30T07:33:08.110Z,101956.17
2019-05-30T07:35:40.720Z,101951.42
2019-05-30T07:38:14.046Z,101947.45
2019-05-30T07:40:46.720Z,101945.20
2019-05-30T07:43:19.290Z,101946.23
2019-05-30T07:45:57.896Z,101944.72
2019-05-30T07:48:26.435Z,101952.60
2019-05-30T07:50:58.887Z,101949.23
2019-05-30T07:53:32.706Z,101962.32
2019-05-30T07:56:06.501Z,101950.94
2019-05-30T07:58:38.890Z,101955.42
2019-05-30T08:01:11.527Z,101949.34
2019-05-30T08:03:44.113Z,101954.80
2019-05-30T08:06:16.760Z,101953.31
2019-05-30T08:08:49.510Z,101954.39
2019-05-30T08:11:22.041Z,101955.47
2019-05-30T08:13:54.645Z,101952.71
2019-05-30T08:16:27.436Z,101949.80
2019-05-30T08:19:00.013Z,101959.88
2019-05-30T08:21:33.112Z,101960.42
2019-05-30T08:24:07.115Z,101951.48
2019-05-30T08:26:39.731Z,101945.83
2019-05-30T08:29:12.423Z,101939.58
2019-05-30T08:31:45.146Z,101940.62
2019-05-30T08:34:17.600Z,101944.77
2019-05-30T08:36:50.396Z,101950.28
2019-05-30T08:39:23.250Z,101945.56
2019-05-30T08:41:55.908Z,101942.63
2019-05-30T08:44:29.420Z,101940.11
2019-05-30T08:47:02.205Z,101950.22
2019-05-30T08:49:36.063Z,101949.84
2019-05-30T08:52:08.800Z,101947.35
2019-05-30T08:54:41.553Z,101939.94
2019-05-30T08:57:14.105Z,101942.42
2019-05-30T08:59:46.700Z,101942.63
2019-05-30T09:02:19.245Z,101943.17
2019-05-30T09:04:52.060Z,101941.71
2019-05-30T09:07:24.674Z,101936.16
2019-05-30T09:09:57.290Z,101933.05
2019-05-30T09:12:29.680Z,101926.49
2019-05-30T09:15:03.436Z,101923.44
2019-05-30T09:17:36.150Z,101930.96
2019-05-30T09:20:10.513Z,101924.67
2019-05-30T09:22:43.726Z,101917.16
2019-05-30T09:25:17.475Z,101922.23
2019-05-30T09:27:50.095Z,101917.13
2019-05-30T09:30:23.495Z,101915.64
2019-05-30T09:32:56.115Z,101909.95
2019-05-30T09:35:28.915Z,101913.02
2019-05-30T09:38:01.931Z,101914.42
2019-05-30T09:40:36.427Z,101907.11
2019-05-30T09:43:08.946Z,101913.47
2019-05-30T09:45:42.380Z,101910.06
2019-05-30T09:48:15.068Z,101902.79
2019-05-30T09:50:48.747Z,101907.80
2019-05-30T09:53:21.625Z,101910.78
2019-05-30T09:55:53.920Z,101901.20
2019-05-30T09:58:26.410Z,101901.58
2019-05-30T10:00:58.868Z,101894.23
2019-05-30T10:03:31.205Z,101899.69
2019-05-30T10:06:03.676Z,101889.95
2019-05-30T10:08:36.105Z,101898.19
2019-05-30T10:11:08.467Z,101895.93
2019-05-30T10:13:41.026Z,101890.28
2019-05-30T10:16:13.885Z,101892.02
2019-05-30T10:18:47.378Z,101896.99
2019-05-30T10:21:20.645Z,101888.89
2019-05-30T10:23:53.747Z,101890.86
2019-05-30T10:26:26.165Z,101885.95
2019-05-30T10:28:58.627Z,101883.31
2019-05-30T10:31:30.909Z,101882.07
2019-05-30T10:34:03.925Z,101888.39
2019-05-30T10:36:44.316Z,101884.93
2019-05-30T10:39:11.646Z,101884.11
2019-05-30T10:41:44.569Z,101884.92
2019-05-30T10:44:18.245Z,101875.39
2019-05-30T10:46:51.031Z,101879.41
2019-05-30T10:49:34.146Z,101877.45
2019-05-30T10:51:59.328Z,101875.06
2019-05-30T10:54:31.725Z,101864.89
2019-05-30T10:57:04.005Z,101861.78
2019-05-30T10:59:36.365Z,101855.88
2019-05-30T11:02:08.945Z,101855.74
2019-05-30T11:04:41.246Z,101859.67
2019-05-30T11:07:33.226Z,101852.72
2019-05-30T11:10:15.725Z,101852.79
2019-05-30T11:12:49.539Z,101853.90
2019-05-30T11:15:22.146Z,101848.94
2019-05-30T11:17:56.203Z,101857.36
2019-05-30T11:20:28.746Z,101842.69
2019-05-30T11:23:01.428Z,101848.53
2019-05-30T11:25:35.145Z,101846.38
2019-05-30T11:28:08.508Z,101845.62
2019-05-30T11:30:41.166Z,101845.55
2019-05-30T11:33:14.147Z,101835.34
2019-05-30T11:35:46.565Z,101835.38
2019-05-30T11:38:21.126Z,101829.45
2019-05-30T11:40:53.441Z,101836.16
2019-05-30T11:43:25.785Z,101831.16
2019-05-30T11:45:58.086Z,101828.41
2019-05-30T11:48:30.427Z,101819.44
2019-05-30T11:51:05.925Z,101812.33
2019-05-30T11:53:39.723Z,101810.66
2019-05-30T11:56:12.154Z,101809.59
2019-05-30T11:58:44.806Z,101819.89
2019-05-30T12:01:17.165Z,101815.73
2019-05-30T12:03:50.552Z,101804.00
2019-05-30T12:06:24.010Z,101801.78
2019-05-30T12:08:56.952Z,101814.45
2019-05-30T12:11:29.381Z,101802.23
2019-05-30T12:14:01.742Z,101800.40
2019-05-30T12:16:34.528Z,101798.91
2019-05-30T12:19:07.140Z,101796.42
2019-05-30T12:21:39.620Z,101785.34
2019-05-30T12:24:12.060Z,101793.52
2019-05-30T12:26:44.641Z,101788.70
2019-05-30T12:29:17.180Z,101783.87
2019-05-30T12:31:49.803Z,101771.20
2019-05-30T12:34:22.181Z,101771.13
2019-05-30T12:36:54.961Z,101768.23
2019-05-30T12:39:27.401Z,101765.20
2019-05-30T12:42:01.239Z,101763.95
2019-05-30T12:44:33.981Z,101767.20
2019-05-30T12:47:06.740Z,101760.55
2019-05-30T12:49:39.136Z,101761.03
2019-05-30T12:52:12.245Z,101765.95
2019-05-30T12:54:44.855Z,101765.58
2019-05-30T12:57:17.525Z,101755.23
2019-05-30T12:59:50.175Z,101749.22
2019-05-30T13:02:24.411Z,101753.59
2019-05-30T13:04:57.115Z,101757.06
2019-05-30T13:07:29.515Z,101752.68
2019-05-30T13:10:03.442Z,101746.61
2019-05-30T13:12:36.378Z,101748.28
2019-05-30T13:15:09.841Z,101744.96
2019-05-30T13:17:42.600Z,101742.34
2019-05-30T13:20:17.980Z,101741.56
2019-05-30T13:22:50.937Z,101741.91
2019-05-30T13:25:24.946Z,101748.37
2019-05-30T13:28:00.929Z,101741.84
2019-05-30T13:30:32.430Z,101738.34
2019-05-30T13:33:05.017Z,101733.43
2019-05-30T13:35:37.798Z,101736.15
2019-05-30T13:38:25.487Z,101737.05
2019-05-30T13:40:44.535Z,101725.61
2019-05-30T13:43:17.721Z,101726.95
2019-05-30T13:45:50.995Z,101726.22
2019-05-30T13:48:23.795Z,101716.77
2019-05-30T13:50:56.665Z,101716.92
2019-05-30T13:53:29.133Z,101718.13
2019-05-30T13:56:01.555Z,101714.29
2019-05-30T13:58:34.481Z,101714.29
2019-05-30T14:01:12.024Z,101714.82
2019-05-30T14:03:41.643Z,101713.96
2019-05-30T14:06:14.215Z,101711.50
2019-05-30T14:08:47.021Z,101712.42
2019-05-30T14:11:19.760Z,101708.13
2019-05-30T14:13:53.376Z,101704.47
2019-05-30T14:16:25.935Z,101697.27
2019-05-30T14:18:58.806Z,101710.84
2019-05-30T14:21:31.527Z,101712.83
2019-05-30T14:24:05.271Z,101709.50
2019-05-30T14:26:37.845Z,101718.38
2019-05-30T14:29:10.540Z,101710.31
2019-05-30T14:31:44.106Z,101708.45
2019-05-30T14:34:16.490Z,101710.34
2019-05-30T14:36:48.880Z,101702.05
2019-05-30T14:39:21.275Z,101702.75
2019-05-30T14:41:53.855Z,101696.12
2019-05-30T14:44:26.590Z,101701.20
2019-05-30T14:46:59.021Z,101698.44
2019-05-30T14:49:31.531Z,101702.23
2019-05-30T14:52:04.581Z,101704.45
2019-05-30T14:54:37.176Z,101707.19
2019-05-30T14:57:10.942Z,101704.09
2019-05-30T14:59:43.485Z,101708.86
2019-05-30T15:02:17.435Z,101710.41
2019-05-30T15:04:50.279Z,101710.42
2019-05-30T15:07:22.931Z,101708.02
2019-05-30T15:09:56.195Z,101703.02
2019-05-30T15:12:29.021Z,101696.17
2019-05-30T15:15:01.513Z,101693.77
2019-05-30T15:17:34.046Z,101691.44
2019-05-30T15:20:07.861Z,101692.14
2019-05-30T15:22:40.870Z,101690.09
2019-05-30T15:25:17.440Z,101696.02
2019-05-30T15:27:49.414Z,101690.81
2019-05-30T15:30:22.531Z,101695.34
2019-05-30T15:32:55.160Z,101684.66
2019-05-30T15:35:27.911Z,101692.19
2019-05-30T15:38:00.480Z,101695.52
2019-05-30T15:40:33.215Z,101690.42
2019-05-30T15:43:05.831Z,101693.34
2019-05-30T15:45:38.385Z,101683.44
2019-05-30T15:48:12.168Z,101682.41
2019-05-30T15:50:45.217Z,101685.48
2019-05-30T15:53:18.958Z,101692.79
2019-05-30T15:55:51.985Z,101681.17
2019-05-30T15:58:24.512Z,101681.13
2019-05-30T16:00:57.310Z,101678.50
2019-05-30T16:03:30.135Z,101668.77
2019-05-30T16:06:02.910Z,101675.45
2019-05-30T16:08:35.386Z,101673.94
2019-05-30T16:11:08.200Z,101673.30
2019-05-30T16:13:41.061Z,101669.83
2019-05-30T16:16:13.590Z,101670.11
2019-05-30T16:18:46.511Z,101672.88
2019-05-30T16:21:20.308Z,101671.41
2019-05-30T16:23:53.270Z,101665.44
2019-05-30T16:26:26.081Z,101668.10
2019-05-30T16:28:58.870Z,101664.31
2019-05-30T16:31:31.610Z,101665.00
2019-05-30T16:34:04.015Z,101667.73
2019-05-30T16:36:37.000Z,101670.14
2019-05-30T16:39:09.830Z,101661.48
2019-05-30T16:41:43.113Z,101666.13
2019-05-30T16:44:16.254Z,101660.28
2019-05-30T16:46:48.970Z,101663.91
2019-05-30T16:49:22.840Z,101660.66
2019-05-30T16:51:56.920Z,101658.50
2019-05-30T16:54:29.345Z,101654.42
2019-05-30T16:57:02.261Z,101648.52
2019-05-30T16:59:35.176Z,101652.31
2019-05-30T17:02:07.586Z,101649.30
2019-05-30T17:04:40.127Z,101649.91
2019-05-30T17:07:13.320Z,101647.27
2019-05-30T17:09:46.887Z,101650.28
2019-05-30T17:12:21.747Z,101650.31
2019-05-30T17:14:54.595Z,101644.99
2019-05-30T17:17:27.406Z,101649.27
2019-05-30T17:20:00.166Z,101649.30
2019-05-30T17:22:32.915Z,101648.58
2019-05-30T17:25:10.660Z,101641.81
2019-05-30T17:27:43.185Z,101638.33
2019-05-30T17:30:17.639Z,101632.88
2019-05-30T17:32:50.480Z,101633.97
2019-05-30T17:35:24.117Z,101633.50
2019-05-30T17:37:56.667Z,101630.98
2019-05-30T17:40:43.901Z,101636.90
2019-05-30T17:43:04.630Z,101628.78
2019-05-30T17:45:38.390Z,101633.74
2019-05-30T17:48:16.437Z,101634.48
2019-05-30T17:50:46.171Z,101638.73
2019-05-30T18:47:34.865Z,101659.65
2019-05-30T18:50:09.435Z,101664.98
2019-05-30T18:52:42.460Z,101662.58
2019-05-30T18:55:15.295Z,101665.58
2019-05-30T18:57:47.920Z,101666.88
2019-05-30T19:00:20.560Z,101666.84
2019-05-30T19:02:53.380Z,101664.16
2019-05-30T19:05:26.580Z,101660.10
2019-05-30T19:07:59.650Z,101666.97
2019-05-30T19:10:32.395Z,101668.59
2019-05-30T19:13:05.505Z,101664.59
2019-05-30T19:15:38.690Z,101675.13
2019-05-30T19:18:11.583Z,101667.09
2019-05-30T19:20:44.250Z,101669.17
2019-05-30T19:23:16.997Z,101671.16
2019-05-30T19:25:49.750Z,101672.86
2019-05-30T19:28:22.852Z,101675.66
2019-05-30T19:30:55.580Z,101678.97
2019-05-30T19:33:28.865Z,101674.33
2019-05-30T19:36:01.995Z,101679.37
2019-05-30T19:38:35.509Z,101678.84
2019-05-30T19:41:08.281Z,101683.04
2019-05-30T19:43:40.871Z,101678.75
2019-05-30T19:46:13.751Z,101685.80
2019-05-30T19:48:46.525Z,101684.05
2019-05-30T19:51:21.098Z,101687.77
2019-05-30T19:53:53.610Z,101679.89
2019-05-30T19:56:26.591Z,101673.25
2019-05-30T19:58:59.270Z,101678.56
2019-05-30T20:01:32.327Z,101678.12
2019-05-30T20:04:05.610Z,101676.39
2019-05-30T20:06:38.747Z,101675.62
2019-05-30T20:09:12.090Z,101674.72
2019-05-30T20:11:59.901Z,101679.55
2019-05-30T20:14:19.275Z,101676.28
2019-05-30T20:16:52.040Z,101684.06
2019-05-30T20:19:25.395Z,101681.28
2019-05-30T20:21:57.985Z,101684.64
2019-05-30T20:24:30.517Z,101686.67
2019-05-30T20:27:03.120Z,101685.20
2019-05-30T20:29:37.134Z,101679.20
2019-05-30T20:32:11.687Z,101681.41
2019-05-30T20:34:44.096Z,101681.03
2019-05-30T20:37:16.916Z,101685.38
2019-05-30T20:39:49.626Z,101681.35
2019-05-30T20:42:22.201Z,101679.80
2019-05-30T20:44:54.880Z,101684.37
2019-05-30T20:47:27.551Z,101684.75
2019-05-30T20:50:00.058Z,101686.74
2019-05-30T20:52:32.860Z,101684.81
2019-05-30T20:55:08.120Z,101686.42
2019-05-30T20:57:41.159Z,101682.30
2019-05-30T21:00:17.106Z,101679.84
2019-05-30T21:02:50.445Z,101685.56
2019-05-30T21:05:23.202Z,101682.68
2019-05-30T21:07:57.130Z,101678.36
2019-05-30T21:10:29.851Z,101678.97
2019-05-30T21:13:03.034Z,101682.76
2019-05-30T21:15:37.602Z,101683.38
2019-05-30T21:18:10.528Z,101681.32
2019-05-30T21:20:44.135Z,101674.19
2019-05-30T21:23:17.035Z,101678.85
2019-05-30T21:25:49.895Z,101672.05
2019-05-30T21:28:22.571Z,101672.70
2019-05-30T21:30:55.261Z,101678.99
2019-05-30T21:33:27.971Z,101677.34
2019-05-30T21:36:00.490Z,101673.47
2019-05-30T21:38:33.495Z,101673.14
2019-05-30T21:41:06.105Z,101679.88
2019-05-30T21:43:38.936Z,101677.08
2019-05-30T21:46:11.560Z,101676.28
2019-05-30T21:48:44.954Z,101675.05
2019-05-30T21:51:17.780Z,101675.95
2019-05-30T21:53:50.963Z,101675.50
2019-05-30T21:56:23.710Z,101676.37
2019-05-30T21:58:56.325Z,101675.05
2019-05-30T22:01:32.185Z,101672.46
2019-05-30T22:04:06.822Z,101670.31
2019-05-30T22:06:40.836Z,101669.12
2019-05-30T22:09:13.756Z,101674.99
2019-05-30T22:11:46.260Z,101670.41
2019-05-30T22:14:18.887Z,101668.50
2019-05-30T22:16:52.179Z,101673.52
2019-05-30T22:19:25.000Z,101675.84
2019-05-30T22:21:57.670Z,101671.23
2019-05-30T22:24:30.240Z,101680.66
2019-05-30T22:27:02.835Z,101679.77
2019-05-30T22:29:35.555Z,101676.41
2019-05-30T22:32:08.855Z,101671.69
2019-05-30T22:34:42.705Z,101669.95
2019-05-30T22:37:15.290Z,101664.77
2019-05-30T22:39:48.836Z,101664.39
2019-05-30T22:42:21.790Z,101668.64
2019-05-30T22:44:54.495Z,101665.63
2019-05-30T22:47:27.025Z,101667.84
2019-05-30T22:50:00.040Z,101670.55
2019-05-30T22:52:32.740Z,101672.84
2019-05-30T22:55:06.341Z,101672.13
2019-05-30T22:57:39.375Z,101669.66
2019-05-30T23:00:12.210Z,101667.55
2019-05-30T23:02:45.873Z,101671.16
2019-05-30T23:05:18.775Z,101670.50
2019-05-30T23:07:51.528Z,101669.00
2019-05-30T23:10:24.201Z,101671.36
2019-05-30T23:12:56.727Z,101667.48
2019-05-30T23:15:29.510Z,101673.65
2019-05-30T23:18:01.902Z,101667.64
2019-05-30T23:20:35.490Z,101666.05
2019-05-30T23:23:08.408Z,101663.45
2019-05-30T23:25:41.011Z,101672.80
2019-05-30T23:28:13.620Z,101664.58
2019-05-30T23:30:46.268Z,101665.96
2019-05-30T23:33:18.906Z,101661.23
2019-05-30T23:35:52.325Z,101661.30
2019-05-30T23:38:25.150Z,101664.14
2019-05-30T23:40:59.140Z,101662.55
2019-05-30T23:43:32.175Z,101664.50
2019-05-30T23:46:04.867Z,101660.55
2019-05-30T23:48:37.505Z,101661.94
2019-05-30T23:51:09.910Z,101660.17
2019-05-30T23:53:42.446Z,101662.28
2019-05-30T23:56:14.964Z,101657.03
2019-05-30T23:58:47.460Z,101665.95
